INFORMACIÓN METAR y TAF
METAR FOR LEMH
ADDS - METARS form results

(2354 UTC 04 July 2020)
Data provider http://aviationweather.gov/metar/data/
 
METAR text: LEMH 042330Z AUTO 30004KT CAVOK 21/18 Q1021
Conditions at: LEMH (MAHON/MENORCA IS, ES) observed 2330 UTC 04 July 2020
Temperature: 21.0°C (70°F)
Dewpoint: 18.0°C (64°F) [RH = 83%]
Pressure (altimeter): 30.15 inches Hg (1021.0 mb)
Winds: from the WNW (300 degrees) at 5 MPH (4 knots; 2.1 m/s)
Visibility: 6 or more miles (10+ km)
Ceiling: ceiling and visibility are OK
Clouds: unknown
Weather: no significant weather observed at this time

METAR text: LEMH 042300Z AUTO 28003KT CAVOK 21/18 Q1021
Conditions at: LEMH (MAHON/MENORCA IS, ES) observed 2300 UTC 04 July 2020
Temperature: 21.0°C (70°F)
Dewpoint: 18.0°C (64°F) [RH = 83%]
Pressure (altimeter): 30.15 inches Hg (1021.0 mb)
Winds: from the W (280 degrees) at 3 MPH (3 knots; 1.5 m/s)
Visibility: 6 or more miles (10+ km)
Ceiling: ceiling and visibility are OK
Clouds: unknown
Weather: no significant weather observed at this time

Forecast for: LEMH (MAHON/MENORCA IS, ES)
Text: TAF LEMH 042000Z 0421/0521 32005KT 9999 SCT030 TX31/0513Z TN20/0505Z
Forecast period: 2100 UTC 04 July 2020 to 0600 UTC 05 July 2020
Forecast type: FROM: standard forecast or significant change
Winds: from the NW (320 degrees) at 6 MPH (5 knots; 2.6 m/s)
Visibility: 6 or more miles 10+ km)
Ceiling: at least 12,000 feet AGL
Clouds: scattered clouds at 3000 feet AGL
Weather: no significant weather forecast for this period
Text: BECMG 0506/0508 33010KT
Forecast period: 0600 to 2100 UTC 05 July 2020
Forecast type: BECOMING: Conditions expected to become as follows by 0800 UTC 05 July 2020
Winds: from the NNW (330 degrees) at 12 MPH (10 knots; 5.1 m/s)
Visibility: 6 or more miles 10+ km)
Ceiling: at least 12,000 feet AGL
Clouds: scattered clouds at 3000 feet AGL
Weather: no significant weather forecast for this period

 MAPA DE AEROPUERTO

 INFORMACIÓN DE PISTA
Pista 01L Longitud 7710 ft Ancho 148 ft
Elevación 277 ft Umbral desplazado 0 ft Rumbo de pista 9
Pista 19R Longitud 7710 ft Ancho 148 ft
Elevación 298 ft Umbral desplazado 0 ft Rumbo de pista 189
Pista 01R Longitud 6890 ft Ancho 148 ft
Elevación 272 ft Umbral desplazado 0 ft Rumbo de pista 9
Pista 19L Longitud 6890 ft Ancho 148 ft
Elevación 298 ft Umbral desplazado 0 ft Rumbo de pista 189

 FRECUANCIAS DEL AEROPUERTO
Tipo APP Nombre APP Frecuencia 119.65 MHZ
Tipo ATIS Nombre ATIS Frecuencia 112.6 MHZ
Tipo GND Nombre GND Frecuencia 121.75 MHZ
Tipo TWR Nombre TWR Frecuencia 118.2 MHZ

 RADIO AYUDAS DEL AEROPUERTO
Tipo VOR-DME Nombre Menorca Frecuencia 112600 KHZ
Tipo NDB Nombre Menorca Frecuencia 344 KHZ



Powered by Virtual Airlines Manager [v2.6.2]